createdAt,value
2023-02-20T00:00:33.686Z,9.57
2023-02-20T00:03:00.421Z,9.22
2023-02-20T00:05:27.149Z,9.57
2023-02-20T00:07:53.864Z,9.33
2023-02-20T00:10:20.596Z,9.48
2023-02-20T00:12:47.362Z,9.28
2023-02-20T00:15:16.685Z,9.58
2023-02-20T00:17:44.766Z,9.61
2023-02-20T00:20:11.904Z,9.23
2023-02-20T00:22:38.562Z,9.03
2023-02-20T00:25:05.405Z,9.26
2023-02-20T00:27:32.084Z,9.25
2023-02-20T00:29:58.885Z,9.19
2023-02-20T00:32:25.543Z,8.97
2023-02-20T00:34:52.249Z,9.23
2023-02-20T00:37:18.927Z,9.13
2023-02-20T00:39:45.623Z,9.22
2023-02-20T00:42:12.298Z,9.21
2023-02-20T00:44:39.078Z,9.42
2023-02-20T00:47:05.877Z,9.02
2023-02-20T00:49:32.608Z,9.17
2023-02-20T00:51:59.325Z,9.06
2023-02-20T00:54:26.037Z,9.08
2023-02-20T00:56:52.732Z,9.19
2023-02-20T00:59:19.457Z,9.15
2023-02-20T01:01:46.298Z,9.14
2023-02-20T01:04:15.516Z,9.06
2023-02-20T01:06:45.702Z,9.21
2023-02-20T01:09:13.769Z,9.33
2023-02-20T01:11:45.243Z,9.17
2023-02-20T01:14:13.149Z,9.40
2023-02-20T01:16:48.278Z,9.38
2023-02-20T01:19:15.811Z,9.42
2023-02-20T01:21:42.650Z,9.20
2023-02-20T01:24:09.660Z,9.08
2023-02-20T01:26:36.651Z,9.46
2023-02-20T01:29:04.779Z,9.49
2023-02-20T01:31:31.580Z,9.00
2023-02-20T01:33:58.275Z,9.09
2023-02-20T01:36:25.069Z,9.54
2023-02-20T01:38:51.769Z,9.29
2023-02-20T01:41:19.211Z,9.67
2023-02-20T01:43:46.771Z,9.78
2023-02-20T01:46:28.772Z,10.07
2023-02-20T01:49:11.458Z,10.18
2023-02-20T01:51:46.156Z,10.11
2023-02-20T01:54:16.852Z,10.04
2023-02-20T01:56:45.787Z,10.20
2023-02-20T01:59:14.391Z,10.32
2023-02-20T02:01:41.327Z,10.23
2023-02-20T02:04:11.361Z,10.21
2023-02-20T02:06:41.768Z,10.13
2023-02-20T02:09:38.452Z,10.44
2023-02-20T02:12:05.622Z,10.29
2023-02-20T02:14:32.478Z,10.26
2023-02-20T02:17:11.345Z,10.78
2023-02-20T02:20:03.742Z,10.45
2023-02-20T02:23:09.220Z,10.79
2023-02-20T02:26:03.606Z,10.90
2023-02-20T02:28:46.512Z,10.99
2023-02-20T02:31:28.452Z,10.97
2023-02-20T02:34:18.375Z,10.98
2023-02-20T02:37:06.465Z,11.12
2023-02-20T02:39:33.133Z,11.19
2023-02-20T02:42:29.640Z,11.23
2023-02-20T02:45:09.760Z,10.94
2023-02-20T02:48:00.429Z,10.96
2023-02-20T02:50:36.739Z,10.99
2023-02-20T02:53:07.280Z,10.65
2023-02-20T02:55:34.211Z,10.77
2023-02-20T02:58:02.681Z,11.09
2023-02-20T03:00:53.135Z,11.27
2023-02-20T03:03:30.396Z,11.06
2023-02-20T03:06:00.207Z,11.32
2023-02-20T03:08:41.604Z,10.87
2023-02-20T03:11:23.084Z,11.11
2023-02-20T03:14:40.034Z,10.83
2023-02-20T03:17:26.659Z,10.97
2023-02-20T03:19:57.375Z,11.00
2023-02-20T03:22:24.001Z,11.00
2023-02-20T03:24:58.177Z,10.95
2023-02-20T03:27:31.714Z,10.56
2023-02-20T03:30:00.018Z,11.16
2023-02-20T03:32:49.341Z,11.27
2023-02-20T03:35:35.440Z,11.34
2023-02-20T03:38:25.015Z,11.58
2023-02-20T03:41:11.214Z,11.74
2023-02-20T03:43:39.924Z,11.76
2023-02-20T03:46:14.281Z,11.99
2023-02-20T03:48:46.535Z,12.01
2023-02-20T03:51:14.245Z,12.15
2023-02-20T03:53:43.152Z,12.40
2023-02-20T03:56:16.963Z,12.28
2023-02-20T03:58:48.434Z,12.25
2023-02-20T04:01:18.383Z,12.15
2023-02-20T04:03:48.262Z,12.38
2023-02-20T04:06:17.537Z,12.42
2023-02-20T04:09:27.731Z,12.32
2023-02-20T04:12:21.185Z,12.25
2023-02-20T04:14:50.189Z,12.44
2023-02-20T04:17:26.386Z,12.66
2023-02-20T04:19:53.312Z,12.42
2023-02-20T04:22:28.005Z,12.58
2023-02-20T04:25:01.562Z,12.72
2023-02-20T04:27:28.347Z,12.37
2023-02-20T04:29:55.240Z,12.51
2023-02-20T04:32:21.933Z,12.53
2023-02-20T04:34:48.796Z,12.68
2023-02-20T04:37:19.031Z,12.60
2023-02-20T04:39:46.581Z,12.59
2023-02-20T04:42:13.735Z,12.83
2023-02-20T04:44:40.479Z,12.35
2023-02-20T04:47:11.611Z,12.73
2023-02-20T04:49:38.574Z,12.47
2023-02-20T04:52:05.286Z,12.49
2023-02-20T04:54:32.005Z,12.46
2023-02-20T04:56:58.984Z,12.33
2023-02-20T04:59:25.956Z,12.28
2023-02-20T05:01:54.924Z,12.21
2023-02-20T05:04:22.513Z,12.47
2023-02-20T05:06:52.982Z,12.18
2023-02-20T05:09:21.718Z,12.41
2023-02-20T05:11:48.883Z,12.00
2023-02-20T05:14:15.758Z,12.10
2023-02-20T05:16:43.087Z,12.34
2023-02-20T05:19:09.811Z,12.03
2023-02-20T05:21:55.092Z,12.12
2023-02-20T05:24:22.325Z,12.52
2023-02-20T05:26:49.030Z,12.28
2023-02-20T05:29:15.820Z,12.24
2023-02-20T05:31:42.987Z,12.39
2023-02-20T05:34:10.248Z,12.63
2023-02-20T05:36:37.095Z,12.40
2023-02-20T05:39:05.169Z,12.40
2023-02-20T05:41:32.204Z,12.28
2023-02-20T05:44:00.033Z,12.38
2023-02-20T05:46:27.517Z,12.65
2023-02-20T05:48:55.484Z,12.82
2023-02-20T05:51:25.742Z,12.53
2023-02-20T05:53:52.788Z,12.48
2023-02-20T05:56:19.851Z,12.68
2023-02-20T05:58:47.874Z,12.80
2023-02-20T06:01:22.582Z,12.77
2023-02-20T06:03:49.660Z,12.59
2023-02-20T06:06:17.413Z,12.65
2023-02-20T06:08:44.341Z,12.28
2023-02-20T06:11:12.756Z,12.65
2023-02-20T06:13:44.041Z,12.70
2023-02-20T06:16:12.249Z,12.56
2023-02-20T06:18:41.262Z,12.54
2023-02-20T06:21:11.636Z,11.73
2023-02-20T06:23:39.195Z,11.86
2023-02-20T06:26:07.236Z,11.38
2023-02-20T06:28:34.484Z,11.35
2023-02-20T06:31:02.306Z,11.39
2023-02-20T06:33:29.957Z,11.27
2023-02-20T06:35:57.265Z,11.27
2023-02-20T06:38:24.858Z,11.08
2023-02-20T06:40:51.664Z,10.92
2023-02-20T06:43:18.666Z,10.72
2023-02-20T06:45:45.748Z,10.73
2023-02-20T06:48:14.561Z,10.60
2023-02-20T06:50:41.925Z,10.55
2023-02-20T06:53:09.245Z,10.72
2023-02-20T06:55:36.198Z,10.40
2023-02-20T06:58:02.938Z,10.52
2023-02-20T07:00:29.746Z,10.56
2023-02-20T07:02:56.444Z,10.59
2023-02-20T07:05:23.191Z,10.44
2023-02-20T07:07:49.903Z,10.66
2023-02-20T07:10:16.750Z,10.87
2023-02-20T07:12:43.522Z,10.67
2023-02-20T07:15:11.626Z,10.74
2023-02-20T07:17:38.578Z,10.64
2023-02-20T07:20:06.653Z,10.74
2023-02-20T07:22:34.128Z,10.69
2023-02-20T07:25:03.641Z,10.50
2023-02-20T07:27:30.811Z,10.54
2023-02-20T07:29:59.105Z,10.69
2023-02-20T07:32:26.260Z,10.44
2023-02-20T07:35:03.688Z,10.73
2023-02-20T07:37:31.672Z,10.83
2023-02-20T07:39:58.607Z,10.42
2023-02-20T07:42:25.469Z,10.48
2023-02-20T07:44:52.233Z,10.65
2023-02-20T07:47:19.173Z,10.48
2023-02-20T07:49:46.004Z,10.67
2023-02-20T07:52:13.752Z,10.88
2023-02-20T07:54:40.650Z,10.60
2023-02-20T07:57:07.389Z,10.78
2023-02-20T07:59:34.153Z,10.73
2023-02-20T08:02:00.966Z,10.56
2023-02-20T08:04:27.786Z,10.83
2023-02-20T08:06:54.537Z,10.57
2023-02-20T08:09:21.276Z,10.54
2023-02-20T08:11:48.227Z,10.54
2023-02-20T08:14:15.893Z,10.97
2023-02-20T08:16:42.698Z,10.50
2023-02-20T08:19:09.656Z,10.60
2023-02-20T08:21:36.414Z,10.53
2023-02-20T08:24:03.292Z,10.43
2023-02-20T08:26:30.176Z,10.29
2023-02-20T08:28:56.882Z,10.38
2023-02-20T08:31:32.208Z,10.69
2023-02-20T08:33:59.824Z,10.89
2023-02-20T08:36:26.562Z,10.58
2023-02-20T08:38:53.398Z,10.53
2023-02-20T08:41:20.960Z,10.86
2023-02-20T08:43:47.854Z,10.49
2023-02-20T08:46:15.019Z,10.50
2023-02-20T08:48:42.036Z,10.47
2023-02-20T08:51:09.600Z,10.76
2023-02-20T08:53:39.478Z,10.64
2023-02-20T08:56:07.214Z,10.42
2023-02-20T08:58:33.947Z,10.55
2023-02-20T09:01:00.668Z,10.40
2023-02-20T09:03:27.397Z,10.60
2023-02-20T09:05:54.212Z,10.57
2023-02-20T09:08:20.960Z,10.42
2023-02-20T09:10:48.283Z,10.62
2023-02-20T09:13:15.360Z,10.40
2023-02-20T09:15:42.083Z,10.57
2023-02-20T09:18:13.189Z,10.61
2023-02-20T09:20:40.800Z,10.56
2023-02-20T09:23:08.437Z,10.75
2023-02-20T09:25:36.174Z,10.75
2023-02-20T09:28:03.057Z,10.16
2023-02-20T09:30:29.778Z,10.49
2023-02-20T09:32:56.541Z,10.52
2023-02-20T09:35:27.034Z,10.54
2023-02-20T09:37:53.946Z,10.36
2023-02-20T09:40:26.046Z,10.38
2023-02-20T09:43:19.216Z,10.74
2023-02-20T09:45:57.544Z,10.52
2023-02-20T09:48:47.404Z,10.68
2023-02-20T09:51:22.312Z,10.34
2023-02-20T09:54:03.356Z,10.69
2023-02-20T09:56:33.436Z,10.57
2023-02-20T09:59:02.997Z,10.90
2023-02-20T10:01:31.018Z,10.70
2023-02-20T10:04:27.399Z,10.66
2023-02-20T10:07:04.676Z,10.60
2023-02-20T10:09:34.763Z,10.50
2023-02-20T10:12:27.199Z,10.76
2023-02-20T10:15:22.742Z,10.83
2023-02-20T10:21:43.305Z,11.01
2023-02-20T10:24:22.232Z,11.15
2023-02-20T10:26:54.510Z,10.99
2023-02-20T10:29:26.687Z,10.98
2023-02-20T10:32:08.514Z,10.50
2023-02-20T10:34:35.216Z,10.97
2023-02-20T10:37:17.917Z,10.60
2023-02-20T10:40:02.376Z,10.64
2023-02-20T10:42:41.202Z,10.57
2023-02-20T10:45:30.445Z,10.73
2023-02-20T10:48:10.399Z,10.95
2023-02-20T10:50:47.035Z,10.79
2023-02-20T10:53:28.709Z,10.68
2023-02-20T10:56:07.264Z,11.08
2023-02-20T10:58:44.695Z,11.08
2023-02-20T11:01:16.285Z,11.16
2023-02-20T11:04:04.147Z,11.23
2023-02-20T11:06:37.121Z,11.05
2023-02-20T11:09:04.273Z,10.96
2023-02-20T11:11:40.092Z,11.14
2023-02-20T11:14:34.138Z,11.36
2023-02-20T11:17:20.747Z,11.41
2023-02-20T11:19:47.520Z,11.30
2023-02-20T11:22:15.965Z,10.91
2023-02-20T11:24:44.054Z,11.25
2023-02-20T11:27:25.369Z,11.09
2023-02-20T11:30:05.176Z,11.39
2023-02-20T11:32:35.280Z,11.15
2023-02-20T11:35:20.016Z,11.42
2023-02-20T11:38:11.716Z,11.24
2023-02-20T11:40:38.596Z,11.44
2023-02-20T11:43:14.547Z,11.79
2023-02-20T11:45:41.718Z,11.64
2023-02-20T11:48:19.988Z,11.90
2023-02-20T11:50:49.664Z,12.33
2023-02-20T11:53:21.366Z,12.37
2023-02-20T11:55:59.812Z,12.47
2023-02-20T11:58:28.905Z,12.41
2023-02-20T12:00:55.897Z,12.38
2023-02-20T12:03:24.441Z,12.52
2023-02-20T12:05:52.513Z,12.56
2023-02-20T12:08:55.291Z,12.48
2023-02-20T12:11:26.173Z,12.36
2023-02-20T12:13:55.424Z,12.09
2023-02-20T12:16:40.697Z,12.48
2023-02-20T12:19:19.016Z,12.63
2023-02-20T12:21:59.932Z,12.72
2023-02-20T12:25:11.306Z,12.89
2023-02-20T12:27:53.278Z,12.85
2023-02-20T12:30:42.856Z,12.79
2023-02-20T12:33:37.339Z,12.78
2023-02-20T12:36:19.057Z,12.90
2023-02-20T12:39:06.557Z,12.87
2023-02-20T12:41:38.902Z,12.68
2023-02-20T12:44:20.768Z,12.86
2023-02-20T12:47:04.037Z,12.91
2023-02-20T12:50:08.449Z,12.53
2023-02-20T12:53:12.698Z,12.33
2023-02-20T12:55:51.685Z,12.52
2023-02-20T12:58:28.465Z,12.54
2023-02-20T13:01:00.366Z,12.25
2023-02-20T13:03:52.418Z,12.46
2023-02-20T13:06:41.199Z,12.80
2023-02-20T13:09:20.225Z,12.56
2023-02-20T13:11:56.517Z,12.60
2023-02-20T13:14:31.076Z,12.58
2023-02-20T13:17:03.608Z,12.70
2023-02-20T13:19:46.446Z,12.63
2023-02-20T13:22:13.155Z,12.63
2023-02-20T13:24:40.206Z,12.31
2023-02-20T13:27:27.349Z,12.69
2023-02-20T13:30:09.859Z,12.55
2023-02-20T13:32:36.884Z,12.63
2023-02-20T13:35:33.512Z,13.04
2023-02-20T13:38:14.798Z,12.66
2023-02-20T13:41:06.320Z,13.05
2023-02-20T13:43:37.464Z,12.67
2023-02-20T13:46:14.891Z,12.39
2023-02-20T13:48:43.407Z,12.53
2023-02-20T13:51:19.960Z,12.42
2023-02-20T13:54:09.584Z,12.22
2023-02-20T13:56:39.256Z,12.51
2023-02-20T13:59:12.921Z,12.38
2023-02-20T14:02:12.498Z,12.54
2023-02-20T14:04:39.451Z,12.61
2023-02-20T14:07:06.355Z,12.54
2023-02-20T14:09:33.109Z,12.64
2023-02-20T14:12:07.962Z,13.04
2023-02-20T14:14:41.356Z,12.67
2023-02-20T14:17:15.604Z,12.87
2023-02-20T14:19:45.731Z,12.84
2023-02-20T14:22:22.408Z,13.06
2023-02-20T14:25:08.903Z,12.68
2023-02-20T14:27:35.557Z,12.63
2023-02-20T14:30:12.735Z,12.34
2023-02-20T14:32:44.378Z,12.51
2023-02-20T14:35:42.960Z,12.35
2023-02-20T14:38:24.740Z,12.25
2023-02-20T14:40:51.552Z,11.76
2023-02-20T14:43:22.226Z,12.15
2023-02-20T14:46:03.255Z,11.83
2023-02-20T14:48:33.719Z,11.92
2023-02-20T14:51:14.898Z,11.96
2023-02-20T14:53:43.480Z,11.80
2023-02-20T14:56:19.298Z,11.73
2023-02-20T14:58:47.206Z,11.77
2023-02-20T15:01:38.934Z,12.06
2023-02-20T15:04:12.793Z,12.04
2023-02-20T15:06:42.335Z,11.86
2023-02-20T15:09:21.458Z,11.89
2023-02-20T15:11:57.593Z,11.86
2023-02-20T15:14:28.258Z,11.97
2023-02-20T15:17:34.837Z,12.11
2023-02-20T15:20:15.748Z,12.12
2023-02-20T15:22:42.520Z,11.67
2023-02-20T15:25:29.348Z,11.64
2023-02-20T15:28:10.920Z,11.98
2023-02-20T15:31:11.279Z,11.96
2023-02-20T15:33:51.673Z,11.64
2023-02-20T15:36:23.271Z,11.68
2023-02-20T15:38:56.534Z,11.47
2023-02-20T15:41:23.859Z,11.65
2023-02-20T15:43:51.709Z,11.44
2023-02-20T15:46:20.031Z,11.18
2023-02-20T15:48:47.317Z,11.14
2023-02-20T15:51:20.016Z,11.34
2023-02-20T15:53:48.036Z,10.79
2023-02-20T15:56:16.440Z,11.17
2023-02-20T15:58:43.931Z,10.97
2023-02-20T16:01:11.531Z,10.67
2023-02-20T16:03:51.212Z,10.80
2023-02-20T16:06:21.572Z,10.83
2023-02-20T16:08:50.452Z,10.94
2023-02-20T16:11:19.275Z,10.83
2023-02-20T16:13:48.950Z,10.72
2023-02-20T16:16:24.301Z,11.10
2023-02-20T16:18:54.709Z,10.86
2023-02-20T16:21:23.188Z,10.95
2023-02-20T16:23:50.446Z,10.93
2023-02-20T16:26:19.228Z,10.80
2023-02-20T16:29:09.104Z,10.73
2023-02-20T16:31:54.116Z,10.72
2023-02-20T16:34:22.499Z,10.37
2023-02-20T16:36:49.737Z,10.67
2023-02-20T16:39:25.626Z,10.30
2023-02-20T16:41:53.698Z,10.40
2023-02-20T16:44:25.190Z,10.44
2023-02-20T16:46:51.852Z,10.54
2023-02-20T16:49:18.588Z,10.39
2023-02-20T16:51:59.329Z,10.57
2023-02-20T16:54:26.102Z,10.30
2023-02-20T16:56:52.815Z,10.28
2023-02-20T16:59:22.016Z,10.14
2023-02-20T17:01:51.621Z,10.02
2023-02-20T17:04:19.963Z,9.93
2023-02-20T17:06:47.329Z,10.51
2023-02-20T17:09:14.299Z,10.22
2023-02-20T17:11:41.083Z,10.22
2023-02-20T17:14:07.747Z,10.27
2023-02-20T17:16:34.431Z,10.12
2023-02-20T17:19:01.105Z,10.10
2023-02-20T17:21:27.848Z,10.33
2023-02-20T17:23:54.485Z,10.08
2023-02-20T17:26:21.221Z,10.28
2023-02-20T17:28:48.358Z,10.35
2023-02-20T17:31:15.502Z,9.94
2023-02-20T17:33:42.555Z,10.19
2023-02-20T17:36:09.605Z,10.18
2023-02-20T17:38:36.610Z,9.99
2023-02-20T17:41:04.241Z,10.16
2023-02-20T17:43:30.983Z,10.23
2023-02-20T17:45:57.664Z,9.67
2023-02-20T17:48:25.147Z,9.89
2023-02-20T17:50:51.916Z,9.94
2023-02-20T17:53:18.762Z,9.87
2023-02-20T17:55:45.475Z,9.75
2023-02-20T17:58:12.172Z,9.81
2023-02-20T18:00:38.969Z,9.84
2023-02-20T18:03:05.691Z,9.74
2023-02-20T18:05:32.395Z,10.05
2023-02-20T18:07:59.417Z,9.79
2023-02-20T18:10:26.112Z,9.82
2023-02-20T18:13:05.219Z,9.69
2023-02-20T18:15:34.692Z,9.95
2023-02-20T18:18:02.521Z,10.00
2023-02-20T18:20:29.460Z,9.90
2023-02-20T18:22:57.364Z,9.96
2023-02-20T18:25:39.149Z,9.73
2023-02-20T18:28:06.752Z,9.79
2023-02-20T18:30:34.755Z,9.87
2023-02-20T18:33:01.833Z,9.87
2023-02-20T18:35:28.784Z,9.69
2023-02-20T18:37:55.545Z,9.72
2023-02-20T18:40:24.242Z,9.63
2023-02-20T18:42:51.830Z,9.77
2023-02-20T18:45:19.823Z,10.09
2023-02-20T18:47:52.324Z,9.68
2023-02-20T18:50:19.835Z,9.74
2023-02-20T18:52:48.025Z,9.93
2023-02-20T18:55:17.838Z,9.95
2023-02-20T18:57:46.431Z,9.88
2023-02-20T19:00:25.645Z,9.97
2023-02-20T19:02:54.534Z,9.82
2023-02-20T19:05:22.597Z,9.58
2023-02-20T19:07:49.330Z,9.49
2023-02-20T19:10:24.864Z,9.91
2023-02-20T19:12:52.926Z,9.89
2023-02-20T19:15:20.708Z,9.88
2023-02-20T19:17:47.609Z,9.88
2023-02-20T19:20:32.752Z,9.76
2023-02-20T19:23:00.677Z,9.39
2023-02-20T19:25:27.437Z,9.89
2023-02-20T19:27:54.342Z,9.35
2023-02-20T19:30:21.285Z,9.59
2023-02-20T19:32:48.421Z,9.62
2023-02-20T19:35:18.390Z,9.38
2023-02-20T19:37:45.087Z,9.34
2023-02-20T19:40:12.408Z,9.62
2023-02-20T19:42:41.068Z,9.76
2023-02-20T19:45:08.334Z,9.80
2023-02-20T19:47:35.300Z,9.34
2023-02-20T19:50:02.313Z,9.34
2023-02-20T19:52:29.055Z,9.75
2023-02-20T19:54:55.815Z,9.48
2023-02-20T19:57:22.515Z,9.27
2023-02-20T19:59:49.281Z,9.56
2023-02-20T20:02:16.055Z,9.67
2023-02-20T20:04:44.136Z,9.71
2023-02-20T20:07:11.504Z,9.44
2023-02-20T20:09:38.483Z,9.54
2023-02-20T20:12:27.445Z,9.66
2023-02-20T20:14:54.998Z,9.47
2023-02-20T20:17:21.918Z,9.70
2023-02-20T20:19:58.841Z,9.24
2023-02-20T20:22:26.542Z,9.63
2023-02-20T20:24:53.309Z,9.60
2023-02-20T20:27:21.006Z,9.79
2023-02-20T20:29:48.810Z,9.54
2023-02-20T20:32:16.934Z,9.62
2023-02-20T20:34:49.417Z,9.64
2023-02-20T20:37:16.589Z,9.70
2023-02-20T20:39:43.249Z,9.32
2023-02-20T20:42:09.930Z,9.53
2023-02-20T20:44:36.572Z,9.68
2023-02-20T20:47:03.985Z,9.46
2023-02-20T20:49:30.792Z,9.59
2023-02-20T20:51:57.482Z,9.55
2023-02-20T20:54:24.492Z,9.58
2023-02-20T20:56:51.755Z,9.48
2023-02-20T20:59:18.531Z,9.43
2023-02-20T21:01:45.418Z,9.36
2023-02-20T21:04:12.927Z,9.34
2023-02-20T21:06:39.677Z,9.39
2023-02-20T21:09:06.401Z,9.39
2023-02-20T21:11:35.445Z,9.24
2023-02-20T21:14:02.309Z,9.38
2023-02-20T21:16:29.072Z,9.37
2023-02-20T21:18:55.835Z,9.31
2023-02-20T21:21:28.160Z,9.76
2023-02-20T21:23:54.871Z,9.60
2023-02-20T21:26:22.316Z,9.28
2023-02-20T21:28:49.180Z,9.56
2023-02-20T21:31:16.827Z,9.57
2023-02-20T21:33:43.782Z,9.24
2023-02-20T21:36:10.977Z,9.36
2023-02-20T21:38:37.660Z,9.64
2023-02-20T21:41:04.670Z,9.41
2023-02-20T21:43:49.849Z,9.57
2023-02-20T21:46:19.447Z,9.12
2023-02-20T21:48:46.120Z,9.29
2023-02-20T21:51:13.070Z,9.40
2023-02-20T21:53:39.891Z,9.23
2023-02-20T21:56:06.533Z,9.12
2023-02-20T21:58:51.703Z,9.19
2023-02-20T22:01:18.332Z,9.02
2023-02-20T22:03:44.956Z,9.15
2023-02-20T22:06:11.555Z,9.04
2023-02-20T22:08:57.071Z,9.03
2023-02-20T22:11:42.572Z,9.41
2023-02-20T22:14:27.957Z,9.28
2023-02-20T22:17:13.437Z,9.32
2023-02-20T22:19:58.533Z,9.16
2023-02-20T22:22:44.008Z,9.28
2023-02-20T22:25:29.297Z,9.20
2023-02-20T22:28:14.417Z,9.21
2023-02-20T22:30:59.804Z,9.25
2023-02-20T22:33:45.238Z,9.47
2023-02-20T22:36:30.731Z,9.31
2023-02-20T22:39:15.828Z,9.46
2023-02-20T22:42:02.254Z,9.52
2023-02-20T22:44:47.759Z,9.23
2023-02-20T22:47:32.888Z,9.10
2023-02-20T22:50:18.157Z,9.45
2023-02-20T22:53:03.284Z,9.14
2023-02-20T22:55:48.516Z,9.20
2023-02-20T22:58:33.765Z,9.16
2023-02-20T23:01:18.890Z,9.35
2023-02-20T23:04:04.187Z,9.30
2023-02-20T23:06:49.277Z,9.19
2023-02-20T23:09:34.516Z,9.35
2023-02-20T23:12:19.685Z,9.12
2023-02-20T23:15:05.058Z,9.20
2023-02-20T23:17:50.215Z,9.07
2023-02-20T23:20:39.791Z,9.50
2023-02-20T23:23:25.890Z,9.51
2023-02-20T23:26:12.398Z,9.50
2023-02-20T23:28:58.098Z,8.96
2023-02-20T23:31:57.138Z,9.43
2023-02-20T23:34:43.576Z,9.15
2023-02-20T23:37:28.806Z,9.05
2023-02-20T23:40:15.914Z,9.53
2023-02-20T23:43:02.843Z,9.36
2023-02-20T23:45:48.299Z,9.31
2023-02-20T23:48:33.427Z,9.30
2023-02-20T23:51:18.641Z,9.10
2023-02-20T23:54:03.873Z,9.17
2023-02-20T23:56:49.010Z,9.13
2023-02-20T23:59:34.368Z,9.21
